Time;durP1;ratioP1;P1;durP2;ratioP2;P2;SDS_P1;SDS_P2;PMS_P1;PMS_P2;Temp;Humidity;BMP_temperature;BMP_pressure;BME280_temperature;BME280_humidity;BME280_pressure;Samples;Min_cycle;Max_cycle;Signal;HPM_P1;HPM_P2
2022/10/18 00:00:30;;;;;;;13.70;6.63;;;;;;;12.93;100.00;102505.44;5094775;28;20032;-65
2022/10/18 00:02:56;;;;;;;11.60;6.97;;;;;;;12.91;100.00;102512.41;5086218;28;20028;-66
2022/10/18 00:05:21;;;;;;;15.63;7.28;;;;;;;12.84;100.00;102515.69;5090231;28;20033;-66
2022/10/18 00:07:46;;;;;;;16.50;6.82;;;;;;;12.78;100.00;102511.13;5077861;28;20657;-65
2022/10/18 00:10:12;;;;;;;10.75;6.80;;;;;;;12.74;100.00;102512.75;5086560;28;20061;-66
2022/10/18 00:12:37;;;;;;;17.83;6.70;;;;;;;12.68;100.00;102509.88;5092268;28;20020;-67
2022/10/18 00:15:05;;;;;;;10.18;6.30;;;;;;;12.65;100.00;102504.50;5078681;28;20028;-66
2022/10/18 00:17:30;;;;;;;16.02;6.97;;;;;;;12.61;100.00;102503.47;5077392;28;20112;-65
2022/10/18 00:19:55;;;;;;;16.67;6.20;;;;;;;12.59;100.00;102506.94;5091873;28;20028;-65
2022/10/18 00:22:21;;;;;;;9.95;6.07;;;;;;;12.54;100.00;102508.50;5075230;28;20476;-65
2022/10/18 00:24:46;;;;;;;15.98;6.50;;;;;;;12.49;100.00;102518.88;5091149;28;20081;-66
2022/10/18 00:27:11;;;;;;;10.88;6.20;;;;;;;12.45;100.00;102507.34;5082168;28;20047;-66
2022/10/18 00:29:37;;;;;;;17.27;6.35;;;;;;;12.42;100.00;102507.22;5082209;28;20107;-66
2022/10/18 00:32:02;;;;;;;10.93;6.15;;;;;;;12.40;100.00;102511.56;5093413;28;20020;-66
2022/10/18 00:34:28;;;;;;;10.65;5.97;;;;;;;12.36;100.00;102517.56;5086819;28;20020;-66
2022/10/18 00:36:53;;;;;;;9.48;5.78;;;;;;;12.30;100.00;102514.69;5093721;28;20468;-66
2022/10/18 00:39:20;;;;;;;10.57;5.78;;;;;;;12.27;100.00;102514.59;5092843;28;20035;-66
2022/10/18 00:41:47;;;;;;;18.83;5.88;;;;;;;12.25;100.00;102518.91;5093434;28;20022;-66
2022/10/18 00:44:12;;;;;;;14.23;7.13;;;;;;;12.22;100.00;102518.78;5094282;28;20039;-66
2022/10/18 00:46:43;;;;;;;14.10;5.97;;;;;;;12.18;100.00;102522.16;5085177;28;20024;-66
2022/10/18 00:49:22;;;;;;;10.43;5.95;;;;;;;12.15;100.00;102520.31;5078779;28;20460;-66
2022/10/18 00:52:01;;;;;;;13.48;6.53;;;;;;;12.12;100.00;102525.47;5094793;28;20024;-66
2022/10/18 00:54:29;;;;;;;7.85;5.13;;;;;;;12.07;100.00;102525.31;5092326;28;20028;-66
2022/10/18 00:56:55;;;;;;;10.73;6.13;;;;;;;12.06;100.00;102530.50;5094578;28;20130;-65
2022/10/18 00:59:21;;;;;;;11.02;6.15;;;;;;;12.02;100.00;102521.59;5085033;28;20025;-65
2022/10/18 01:01:46;;;;;;;11.23;5.70;;;;;;;12.04;100.00;102524.28;5077627;28;20047;-65
2022/10/18 01:04:16;;;;;;;12.75;5.45;;;;;;;12.00;100.00;102528.53;5089009;28;20055;-66
2022/10/18 01:07:15;;;;;;;14.10;5.60;;;;;;;11.96;100.00;102526.63;5089561;28;20551;-66
2022/10/18 01:09:51;;;;;;;10.93;5.80;;;;;;;11.96;100.00;102537.19;5080220;28;20440;-66
2022/10/18 01:12:44;;;;;;;10.32;5.32;;;;;;;11.91;100.00;102529.06;5091360;28;20032;-65
2022/10/18 01:15:24;;;;;;;10.32;5.40;;;;;;;11.87;100.00;102537.72;5087514;28;20088;-66
2022/10/18 01:17:52;;;;;;;11.40;6.22;;;;;;;11.86;100.00;102532.38;5094386;28;20039;-65
2022/10/18 01:20:30;;;;;;;13.02;6.38;;;;;;;11.91;100.00;102528.16;5093692;28;20032;-66
2022/10/18 01:23:03;;;;;;;10.63;6.07;;;;;;;11.92;100.00;102536.16;5093741;28;20028;-66
2022/10/18 01:25:52;;;;;;;12.73;5.20;;;;;;;11.87;100.00;102536.78;5086598;28;20032;-66
2022/10/18 01:28:55;;;;;;;9.77;6.20;;;;;;;11.81;100.00;102542.75;5085099;28;20503;-67
2022/10/18 01:31:24;;;;;;;12.82;4.93;;;;;;;11.76;100.00;102536.38;5071765;28;20047;-65
2022/10/18 01:33:58;;;;;;;19.60;5.45;;;;;;;11.73;100.00;102531.88;5094145;28;20425;-65
2022/10/18 01:36:36;;;;;;;17.15;6.40;;;;;;;11.78;100.00;102530.31;5093284;28;20051;-65
2022/10/18 01:39:07;;;;;;;11.02;5.30;;;;;;;11.72;100.00;102532.75;5083941;28;20079;-65
2022/10/18 01:41:36;;;;;;;11.45;5.03;;;;;;;11.68;100.00;102533.47;5088295;28;20091;-66
2022/10/18 01:44:06;;;;;;;13.70;5.13;;;;;;;11.64;100.00;102536.81;5084593;28;20032;-66
2022/10/18 01:46:32;;;;;;;11.43;5.25;;;;;;;11.61;100.00;102539.31;5092529;28;20023;-66
2022/10/18 01:48:58;;;;;;;8.45;4.32;;;;;;;11.59;100.00;102535.72;5092636;28;20020;-66
2022/10/18 01:51:26;;;;;;;11.13;4.97;;;;;;;11.56;100.00;102535.63;5091678;28;20704;-66
2022/10/18 01:53:51;;;;;;;14.25;7.50;;;;;;;11.50;100.00;102528.34;5085757;28;20051;-66
2022/10/18 01:56:41;;;;;;;12.43;4.82;;;;;;;11.45;100.00;102536.06;5089754;28;20079;-66
2022/10/18 01:59:35;;;;;;;14.85;5.55;;;;;;;11.47;100.00;102547.56;5084308;28;20102;-65
2022/10/18 02:02:03;;;;;;;14.65;5.20;;;;;;;11.46;100.00;102543.16;5088292;28;20360;-64
2022/10/18 02:04:51;;;;;;;14.55;6.35;;;;;;;11.44;100.00;102542.19;5080292;28;20036;-66
2022/10/18 02:07:46;;;;;;;9.70;5.07;;;;;;;11.42;100.00;102553.50;5092787;28;20024;-65
2022/10/18 02:10:11;;;;;;;;;;;;;;;11.40;100.00;102553.44;5081781;28;20539;-67
2022/10/18 02:12:40;;;;;;;11.37;5.00;;;;;;;11.37;100.00;102545.41;5075896;28;20003;-66
2022/10/18 02:15:08;;;;;;;12.23;5.35;;;;;;;11.34;100.00;102549.66;5076163;28;20044;-64
2022/10/18 02:17:34;;;;;;;12.30;5.05;;;;;;;11.33;100.00;102548.75;5084172;28;20035;-66
2022/10/18 02:20:05;;;;;;;11.90;4.82;;;;;;;11.33;100.00;102551.41;5089349;28;20911;-65
2022/10/18 02:22:32;;;;;;;10.35;5.00;;;;;;;11.27;100.00;102552.06;5085174;28;20027;-66
2022/10/18 02:25:01;;;;;;;10.80;5.03;;;;;;;11.24;100.00;102551.00;5085097;28;20021;-67
2022/10/18 02:27:26;;;;;;;13.25;4.60;;;;;;;11.19;100.00;102552.56;5076244;28;20032;-66
2022/10/18 02:29:52;;;;;;;13.85;5.47;;;;;;;11.19;100.00;102552.56;5087723;28;20028;-66
2022/10/18 02:32:33;;;;;;;16.15;4.50;;;;;;;11.17;100.00;102556.88;5083217;28;20031;-66
2022/10/18 02:35:07;;;;;;;8.50;4.28;;;;;;;11.11;100.00;102545.25;5087970;28;20049;-66
2022/10/18 02:37:38;;;;;;;10.07;4.55;;;;;;;11.08;100.00;102547.75;5080446;28;20055;-66
2022/10/18 02:40:05;;;;;;;12.65;5.95;;;;;;;11.10;100.00;102555.72;5086909;28;20483;-66
2022/10/18 02:42:43;;;;;;;14.15;4.93;;;;;;;11.08;100.00;102558.28;5091709;28;20364;-66
2022/10/18 02:45:08;;;;;;;7.28;4.70;;;;;;;11.02;100.00;102544.84;5073083;28;20123;-67
2022/10/18 02:47:33;;;;;;;6.93;4.18;;;;;;;11.02;100.00;102551.88;5076374;28;20091;-67
2022/10/18 02:49:59;;;;;;;9.85;4.88;;;;;;;10.98;100.00;102544.66;5091977;28;20028;-66
2022/10/18 02:52:24;;;;;;;14.70;4.65;;;;;;;10.96;100.00;102541.97;5088315;28;20055;-66
2022/10/18 02:54:49;;;;;;;12.05;4.95;;;;;;;10.93;100.00;102541.81;5090630;28;20058;-65
2022/10/18 02:57:15;;;;;;;11.23;4.72;;;;;;;10.91;100.00;102533.84;5091964;28;20051;-66
2022/10/18 02:59:40;;;;;;;11.52;4.75;;;;;;;10.92;100.00;102540.00;5092555;28;20028;-66
2022/10/18 03:02:05;;;;;;;8.38;4.63;;;;;;;10.88;100.00;102538.09;5091951;28;20031;-66
2022/10/18 03:04:30;;;;;;;10.98;4.50;;;;;;;10.85;100.00;102544.16;5087517;28;20062;-66
2022/10/18 03:06:56;;;;;;;7.68;4.68;;;;;;;10.79;100.00;102539.50;5090040;28;20034;-65
2022/10/18 03:09:21;;;;;;;8.73;4.35;;;;;;;10.79;100.00;102543.88;5090372;28;20096;-66
2022/10/18 03:11:46;;;;;;;8.45;4.45;;;;;;;10.77;100.00;102535.91;5086215;28;20100;-66
2022/10/18 03:14:12;;;;;;;13.43;4.38;;;;;;;10.77;100.00;102537.63;5075036;28;20052;-65
2022/10/18 03:16:37;;;;;;;6.93;4.10;;;;;;;10.74;100.00;102548.03;5086025;28;20020;-66
2022/10/18 03:19:03;;;;;;;9.90;4.47;;;;;;;10.72;100.00;102553.25;5091403;28;20031;-66
2022/10/18 03:21:28;;;;;;;9.30;4.35;;;;;;;10.68;100.00;102551.31;5079242;28;20020;-66
2022/10/18 03:23:54;;;;;;;6.80;3.78;;;;;;;10.66;100.00;102550.31;5079876;28;20028;-65
2022/10/18 03:26:20;;;;;;;6.68;3.83;;;;;;;10.62;100.00;102540.50;5089410;28;20483;-66
2022/10/18 03:28:45;;;;;;;14.45;4.35;;;;;;;10.60;100.00;102544.81;5090844;28;20028;-66
2022/10/18 03:31:11;;;;;;;13.30;4.20;;;;;;;10.59;100.00;102550.91;5087673;28;20134;-67
2022/10/18 03:33:36;;;;;;;16.92;4.43;;;;;;;10.56;100.00;102556.91;5084126;28;20076;-65
2022/10/18 03:36:02;;;;;;;6.85;3.85;;;;;;;10.52;100.00;102559.38;5092828;28;20056;-66
2022/10/18 03:38:27;;;;;;;8.02;4.03;;;;;;;10.50;100.00;102567.19;5095436;28;20028;-66
2022/10/18 03:40:52;;;;;;;13.38;5.13;;;;;;;10.49;100.00;102567.13;5094768;28;20046;-65
2022/10/18 03:43:18;;;;;;;8.48;4.20;;;;;;;10.51;100.00;102562.81;5090454;28;20112;-66
2022/10/18 03:45:43;;;;;;;10.95;4.25;;;;;;;10.47;100.00;102556.50;5076982;28;20369;-66
2022/10/18 03:48:08;;;;;;;14.18;4.63;;;;;;;10.50;100.00;102555.75;5085157;28;20028;-65
2022/10/18 03:50:34;;;;;;;9.60;4.38;;;;;;;10.51;100.00;102558.44;5079767;28;20024;-66
2022/10/18 03:52:59;;;;;;;13.18;4.80;;;;;;;10.48;100.00;102550.41;5085811;28;20023;-65
2022/10/18 03:55:24;;;;;;;14.95;4.72;;;;;;;10.46;100.00;102554.72;5086229;28;20028;-65
2022/10/18 03:57:49;;;;;;;16.00;5.82;;;;;;;10.43;100.00;102552.88;5077501;28;20047;-66
2022/10/18 04:00:15;;;;;;;10.65;5.03;;;;;;;10.52;100.00;102557.63;5081856;28;20038;-66
2022/10/18 04:02:40;;;;;;;13.70;4.93;;;;;;;10.48;100.00;102555.69;5090255;28;20051;-67
2022/10/18 04:05:06;;;;;;;13.10;4.43;;;;;;;10.43;100.00;102566.03;5080174;28;20023;-65
2022/10/18 04:07:32;;;;;;;11.55;4.05;;;;;;;10.37;100.00;102554.31;5087546;28;20110;-65
2022/10/18 04:09:58;;;;;;;12.13;4.90;;;;;;;10.32;100.00;102554.06;5086016;28;20032;-65
2022/10/18 04:12:24;;;;;;;16.35;6.57;;;;;;;10.28;100.00;102554.75;5082598;28;20035;-66
2022/10/18 04:14:49;;;;;;;20.42;6.07;;;;;;;10.28;100.00;102549.50;5079483;28;20388;-66
2022/10/18 04:17:14;;;;;;;14.00;5.75;;;;;;;10.25;100.00;102552.00;5084867;28;20047;-65
2022/10/18 04:19:40;;;;;;;11.40;4.65;;;;;;;10.21;100.00;102552.69;5093979;28;20103;-67
2022/10/18 04:22:06;;;;;;;14.85;5.57;;;;;;;10.19;100.00;102549.09;5089574;28;20107;-65
2022/10/18 04:24:31;;;;;;;9.90;5.00;;;;;;;10.19;100.00;102555.25;5092293;28;20372;-65
2022/10/18 04:26:57;;;;;;;15.95;4.93;;;;;;;10.15;100.00;102548.03;5091655;28;20032;-66
2022/10/18 04:29:22;;;;;;;10.05;5.10;;;;;;;10.10;100.00;102560.97;5080873;28;20044;-66
2022/10/18 04:31:47;;;;;;;7.05;4.82;;;;;;;10.12;100.00;102561.06;5081304;28;20510;-65
2022/10/18 04:34:13;;;;;;;15.23;4.80;;;;;;;10.07;100.00;102559.94;5088502;28;20024;-66
2022/10/18 04:36:38;;;;;;;13.88;5.40;;;;;;;10.05;100.00;102551.06;5080921;28;20052;-65
2022/10/18 04:39:03;;;;;;;7.53;4.85;;;;;;;10.03;100.00;102552.75;5092931;28;20024;-66
2022/10/18 04:41:29;;;;;;;12.50;5.38;;;;;;;10.01;100.00;102564.91;5094938;28;20046;-66
2022/10/18 04:43:54;;;;;;;12.35;4.20;;;;;;;10.00;100.00;102573.63;5090085;28;20482;-65
2022/10/18 04:46:19;;;;;;;9.00;5.38;;;;;;;9.93;100.00;102569.84;5093706;28;20035;-66
2022/10/18 04:48:45;;;;;;;14.45;6.10;;;;;;;9.90;100.00;102567.97;5094620;28;20024;-66
2022/10/18 04:51:10;;;;;;;7.78;5.00;;;;;;;9.88;100.00;102576.59;5094456;28;20384;-65
2022/10/18 04:53:35;;;;;;;12.23;5.63;;;;;;;9.87;100.00;102566.91;5090933;28;20428;-65
2022/10/18 04:56:01;;;;;;;12.02;5.15;;;;;;;9.83;100.00;102567.59;5082216;28;20041;-66
2022/10/18 04:58:26;;;;;;;13.20;5.05;;;;;;;9.80;100.00;102584.09;5078594;28;20032;-65
2022/10/18 05:00:51;;;;;;;11.38;5.18;;;;;;;9.79;100.00;102575.34;5079466;28;20074;-65
2022/10/18 05:03:17;;;;;;;13.85;4.85;;;;;;;9.76;100.00;102575.16;5081766;28;20023;-66
2022/10/18 05:05:44;;;;;;;14.63;4.63;;;;;;;9.76;100.00;102583.06;5078781;28;20365;-67
2022/10/18 05:08:10;;;;;;;12.50;4.97;;;;;;;9.74;100.00;102581.16;5088500;28;20044;-67
2022/10/18 05:10:36;;;;;;;16.15;4.07;;;;;;;9.71;100.00;102589.84;5086237;28;20028;-66
2022/10/18 05:13:02;;;;;;;11.93;5.13;;;;;;;9.63;100.00;102596.47;5092214;28;20101;-66
2022/10/18 05:15:27;;;;;;;12.48;4.60;;;;;;;9.65;100.00;102612.28;5083201;28;20430;-65
2022/10/18 05:17:52;;;;;;;8.80;4.15;;;;;;;9.62;100.00;102607.78;5082777;28;20020;-65
2022/10/18 05:20:18;;;;;;;12.75;4.88;;;;;;;9.60;100.00;102601.53;5080795;28;20029;-66
2022/10/18 05:22:43;;;;;;;17.48;4.53;;;;;;;9.67;100.00;102595.78;5083027;28;20032;-66
2022/10/18 05:25:09;;;;;;;14.73;4.95;;;;;;;9.59;100.00;102598.03;5089510;28;20391;-67
2022/10/18 05:27:34;;;;;;;12.10;6.07;;;;;;;9.55;100.00;102600.41;5080442;28;20032;-66
2022/10/18 05:30:00;;;;;;;14.10;6.53;;;;;;;9.50;100.00;102596.69;5093644;28;20046;-65
2022/10/18 05:32:25;;;;;;;14.88;5.70;;;;;;;9.47;100.00;102615.81;5092101;28;20027;-66
2022/10/18 05:34:51;;;;;;;18.58;5.55;;;;;;;9.43;100.00;102605.97;5092831;28;20024;-67
2022/10/18 05:37:16;;;;;;;10.93;5.18;;;;;;;9.44;100.00;102603.44;5084189;28;20525;-66
2022/10/18 05:39:41;;;;;;;14.38;5.35;;;;;;;9.42;100.00;102599.81;5083269;28;20028;-66
2022/10/18 05:42:07;;;;;;;10.60;4.75;;;;;;;9.38;100.00;102613.63;5090474;28;20074;-66
2022/10/18 05:44:33;;;;;;;19.38;5.22;;;;;;;9.36;100.00;102604.78;5078910;28;20020;-66
2022/10/18 05:46:58;;;;;;;20.20;7.18;;;;;;;9.35;100.00;102610.84;5083400;28;20027;-66
2022/10/18 05:49:23;;;;;;;15.70;5.47;;;;;;;9.35;100.00;102615.22;5092277;28;20024;-67
2022/10/18 05:51:49;;;;;;;13.85;5.57;;;;;;;9.31;100.00;102613.25;5083357;28;20047;-67
2022/10/18 05:54:14;;;;;;;19.17;6.03;;;;;;;9.28;100.00;102609.63;5085444;28;20016;-66
2022/10/18 05:56:40;;;;;;;22.05;7.28;;;;;;;9.24;100.00;102619.91;5080044;28;20036;-65
2022/10/18 05:59:09;;;;;;;14.90;6.30;;;;;;;9.19;100.00;102624.91;5088558;28;20039;-67
2022/10/18 06:01:35;;;;;;;14.88;6.70;;;;;;;9.19;100.00;102640.69;5091599;28;20088;-67
2022/10/18 06:04:00;;;;;;;19.55;6.50;;;;;;;9.20;100.00;102637.25;5071943;28;20488;-65
2022/10/18 06:06:26;;;;;;;19.20;6.20;;;;;;;9.18;100.00;102625.75;5077307;28;20113;-65
2022/10/18 06:08:51;;;;;;;22.25;5.72;;;;;;;9.20;100.00;102628.47;5090631;28;20027;-69
2022/10/18 06:11:19;;;;;;;18.17;6.72;;;;;;;9.18;100.00;102636.25;5075826;28;20050;-67
2022/10/18 06:13:47;;;;;;;14.20;6.35;;;;;;;9.16;100.00;102650.16;5080287;28;20032;-67
2022/10/18 06:16:14;;;;;;;22.10;6.68;;;;;;;9.13;100.00;102657.84;5075617;28;20028;-64
2022/10/18 06:18:40;;;;;;;19.48;7.13;;;;;;;9.24;100.00;102654.06;5073057;28;20121;-66
2022/10/18 06:21:07;;;;;;;16.83;6.55;;;;;;;9.17;100.00;102655.47;5073252;28;20111;-66
2022/10/18 06:23:33;;;;;;;19.00;5.93;;;;;;;9.16;100.00;102648.41;5075283;28;20036;-67
2022/10/18 06:26:04;;;;;;;13.32;5.10;;;;;;;9.18;100.00;102661.63;5079235;28;20050;-66
2022/10/18 06:28:29;;;;;;;23.58;6.75;;;;;;;9.16;100.00;102669.44;5083641;28;20056;-66
2022/10/18 06:30:56;;;;;;;14.82;5.35;;;;;;;9.14;100.00;102675.41;5081087;28;20103;-67
2022/10/18 06:33:21;;;;;;;13.35;5.63;;;;;;;9.11;100.00;102674.44;5091908;28;20027;-66
2022/10/18 06:35:54;;;;;;;18.25;6.20;;;;;;;9.14;100.00;102664.91;5090625;28;20099;-66
2022/10/18 06:38:20;;;;;;;18.27;6.57;;;;;;;9.13;100.00;102668.34;5087432;28;20051;-67
2022/10/18 06:40:47;;;;;;;17.60;6.10;;;;;;;9.11;100.00;102671.81;5077264;28;20125;-66
2022/10/18 06:43:12;;;;;;;16.33;6.82;;;;;;;9.11;100.00;102681.41;5087523;28;20023;-66
2022/10/18 06:45:38;;;;;;;12.95;5.47;;;;;;;9.10;100.00;102687.47;5077821;28;20491;-67
2022/10/18 06:48:03;;;;;;;21.02;7.18;;;;;;;9.10;100.00;102688.41;5088737;28;20047;-66
2022/10/18 06:50:29;;;;;;;20.40;6.80;;;;;;;9.09;100.00;102686.59;5077681;28;20055;-66
2022/10/18 06:52:54;;;;;;;19.02;6.57;;;;;;;9.11;100.00;102674.44;5080445;28;20540;-65
2022/10/18 06:55:19;;;;;;;20.17;6.38;;;;;;;9.16;100.00;102681.66;5083401;28;20032;-66
2022/10/18 06:57:45;;;;;;;15.95;6.15;;;;;;;9.18;100.00;102691.41;5080690;28;20041;-66
2022/10/18 07:00:11;;;;;;;15.88;6.03;;;;;;;9.22;100.00;102689.84;5088886;28;20024;-66
2022/10/18 07:02:40;;;;;;;13.88;6.45;;;;;;;9.19;100.00;102700.19;5078631;28;20054;-67
2022/10/18 07:05:09;;;;;;;16.65;6.40;;;;;;;9.22;100.00;102690.75;5082433;28;20473;-68
2022/10/18 07:07:35;;;;;;;21.45;5.90;;;;;;;9.30;100.00;102696.41;5080125;28;20480;-67
2022/10/18 07:10:00;;;;;;;16.02;6.72;;;;;;;9.30;100.00;102691.16;5074232;28;20076;-67
2022/10/18 07:12:26;;;;;;;14.18;5.28;;;;;;;9.33;100.00;102704.44;5092018;28;20472;-67
2022/10/18 07:14:51;;;;;;;21.25;6.45;;;;;;;9.37;100.00;102701.16;5084743;28;20050;-67
2022/10/18 07:17:16;;;;;;;21.17;6.43;;;;;;;9.43;100.00;102705.81;5082291;28;20024;-66
2022/10/18 07:19:42;;;;;;;9.52;5.70;;;;;;;9.48;100.00;102708.69;5088866;28;20024;-67
2022/10/18 07:22:07;;;;;;;16.75;5.63;;;;;;;9.51;100.00;102714.09;5093594;28;20085;-66
2022/10/18 07:24:32;;;;;;;11.95;5.68;;;;;;;9.54;100.00;102720.41;5081436;28;20016;-67
2022/10/18 07:26:57;;;;;;;21.65;7.35;;;;;;;9.58;100.00;102721.47;5087420;28;20111;-67
2022/10/18 07:29:23;;;;;;;22.63;8.95;;;;;;;9.64;100.00;102721.78;5087646;28;20032;-67
2022/10/18 07:31:48;;;;;;;14.98;7.68;;;;;;;9.70;100.00;102723.81;5091333;28;20035;-66
2022/10/18 07:34:14;;;;;;;15.07;6.78;;;;;;;9.75;100.00;102724.94;5079554;28;20008;-66
2022/10/18 07:36:40;;;;;;;17.40;6.45;;;;;;;9.83;100.00;102734.13;5089738;28;20016;-67
2022/10/18 07:39:06;;;;;;;15.35;5.55;;;;;;;9.91;100.00;102753.81;5084056;28;20028;-66
2022/10/18 07:41:32;;;;;;;14.82;6.03;;;;;;;9.98;100.00;102749.75;5086798;28;20119;-66
2022/10/18 07:43:59;;;;;;;16.83;6.80;;;;;;;10.04;100.00;102739.56;5094583;28;20369;-66
2022/10/18 07:46:24;;;;;;;16.13;6.43;;;;;;;10.11;100.00;102741.66;5081324;28;20025;-66
2022/10/18 07:48:50;;;;;;;10.38;5.80;;;;;;;10.20;100.00;102756.06;5074673;28;20036;-65
2022/10/18 07:51:17;;;;;;;13.10;5.72;;;;;;;10.26;100.00;102757.28;5086930;28;20055;-66
2022/10/18 07:53:42;;;;;;;9.00;5.10;;;;;;;10.33;100.00;102761.13;5080193;28;20028;-66
2022/10/18 07:56:19;;;;;;;10.23;5.15;;;;;;;10.40;100.00;102763.22;5092195;28;20070;-66
2022/10/18 07:58:46;;;;;;;15.00;6.80;;;;;;;10.49;100.00;102775.06;5085743;28;20483;-66
2022/10/18 08:01:13;;;;;;;8.15;5.00;;;;;;;10.57;100.00;102768.44;5083056;28;20020;-66
2022/10/18 08:03:39;;;;;;;10.57;5.43;;;;;;;10.67;100.00;102764.50;5090266;28;20396;-67
2022/10/18 08:06:07;;;;;;;9.65;4.70;;;;;;;10.76;100.00;102760.56;5079123;28;20027;-68
2022/10/18 08:08:33;;;;;;;6.72;4.32;;;;;;;10.90;100.00;102762.94;5090074;28;20021;-67
2022/10/18 08:11:04;;;;;;;10.27;4.68;;;;;;;11.03;100.00;102759.13;5084808;28;20016;-67
2022/10/18 08:13:29;;;;;;;7.95;4.50;;;;;;;11.15;100.00;102759.69;5075527;28;20041;-67
2022/10/18 08:16:02;;;;;;;11.65;5.03;;;;;;;11.28;100.00;102761.13;5075082;28;20031;-67
2022/10/18 08:18:28;;;;;;;8.57;5.05;;;;;;;11.43;100.00;102768.81;5080363;28;20051;-66
2022/10/18 08:20:53;;;;;;;5.50;3.85;;;;;;;11.56;100.00;102757.09;5086573;28;20466;-67
2022/10/18 08:23:19;;;;;;;8.57;3.70;;;;;;;11.68;100.00;102759.31;5086505;28;20020;-65
2022/10/18 08:25:44;;;;;;;15.02;4.90;;;;;;;11.79;100.00;102760.72;5079741;28;20024;-67
2022/10/18 08:28:09;;;;;;;13.93;4.90;;;;;;;11.91;100.00;102760.31;5080291;28;20151;-67
2022/10/18 08:30:35;;;;;;;7.78;4.10;;;;;;;12.03;100.00;102762.59;5080236;28;20020;-66
2022/10/18 08:33:01;;;;;;;8.35;4.60;;;;;;;12.17;100.00;102763.16;5082453;28;20035;-68
2022/10/18 08:35:26;;;;;;;9.77;3.40;;;;;;;12.30;100.00;102761.09;5088058;28;20499;-67
2022/10/18 08:37:51;;;;;;;9.30;3.72;;;;;;;12.41;100.00;102765.88;5078580;28;20059;-67
2022/10/18 08:40:17;;;;;;;8.73;3.40;;;;;;;12.53;100.00;102776.94;5091586;28;20028;-66
2022/10/18 08:43:08;;;;;;;9.80;3.10;;;;;;;12.66;100.00;102780.97;5075992;28;20035;-66
2022/10/18 08:45:40;;;;;;;8.02;2.80;;;;;;;12.81;100.00;102778.91;5063216;28;20044;-67
2022/10/18 08:48:15;;;;;;;10.10;2.92;;;;;;;12.95;100.00;102774.19;5081169;28;20071;-67
2022/10/18 08:50:41;;;;;;;13.32;2.65;;;;;;;13.13;100.00;102768.69;5077990;28;20021;-66
2022/10/18 08:53:39;;;;;;;11.15;3.55;;;;;;;13.31;100.00;102772.84;5082113;28;20488;-66
2022/10/18 08:56:13;;;;;;;13.38;2.58;;;;;;;13.55;100.00;102782.53;5080043;28;20041;-68
2022/10/18 08:58:38;;;;;;;;;;;;;;;13.80;100.00;102779.00;5088897;28;20020;-67
2022/10/18 09:01:28;;;;;;;10.07;1.90;;;;;;;14.05;100.00;102769.22;5084565;28;20315;-67
2022/10/18 09:04:22;;;;;;;12.55;2.70;;;;;;;14.43;100.00;102777.50;5079499;28;20051;-68
2022/10/18 09:07:03;;;;;;;11.63;1.83;;;;;;;14.75;100.00;102775.91;5086960;28;20055;-66
2022/10/18 09:09:34;;;;;;;9.15;1.48;;;;;;;15.01;100.00;102779.31;5087803;28;20129;-67
2022/10/18 09:12:21;;;;;;;8.30;1.55;;;;;;;15.31;100.00;102781.09;5077619;28;20054;-66
2022/10/18 09:14:46;;;;;;;11.85;1.45;;;;;;;15.54;100.00;102790.53;5086889;28;20025;-66
2022/10/18 09:17:27;;;;;;;8.25;1.02;;;;;;;15.76;100.00;102792.91;5085222;28;20081;-67
2022/10/18 09:20:26;;;;;;;8.23;1.27;;;;;;;16.00;100.00;102783.78;5077650;28;20055;-67
2022/10/18 09:22:51;;;;;;;7.25;0.93;;;;;;;16.12;100.00;102781.44;5079323;28;20429;-67
2022/10/18 09:25:47;;;;;;;16.13;2.30;;;;;;;16.31;100.00;102795.19;5074120;28;20099;-67
2022/10/18 09:28:14;;;;;;;13.18;2.13;;;;;;;16.51;100.00;102799.19;5019332;28;20058;-66
2022/10/18 09:30:49;;;;;;;7.38;1.75;;;;;;;16.77;100.00;102798.91;5087989;28;20059;-66
2022/10/18 09:33:26;;;;;;;7.75;1.15;;;;;;;16.92;100.00;102806.34;5082732;28;20464;-66
2022/10/18 09:35:57;;;;;;;8.27;1.38;;;;;;;17.12;100.00;102798.81;5080667;28;20114;-66
2022/10/18 09:38:36;;;;;;;12.57;1.73;;;;;;;17.34;100.00;102807.22;5078111;28;20020;-66
2022/10/18 09:41:09;;;;;;;9.60;1.08;;;;;;;17.53;100.00;102816.47;5088234;28;20047;-66
2022/10/18 09:43:47;;;;;;;8.25;1.15;;;;;;;17.64;100.00;102827.31;5076767;28;20066;-66
2022/10/18 09:46:14;;;;;;;5.03;0.93;;;;;;;17.80;100.00;102825.84;5087809;28;20082;-66
2022/10/18 09:48:48;;;;;;;7.82;1.10;;;;;;;17.98;100.00;102828.84;5073608;28;20036;-66
2022/10/18 09:51:20;;;;;;;9.20;1.15;;;;;;;18.04;100.00;102830.72;5076080;28;20059;-66
2022/10/18 09:54:24;;;;;;;4.80;1.10;;;;;;;18.06;100.00;102831.66;5088662;28;20043;-68
2022/10/18 09:56:56;;;;;;;3.83;1.00;;;;;;;18.23;100.00;102841.69;5017720;28;20050;-67
2022/10/18 09:59:26;;;;;;;10.07;1.55;;;;;;;18.33;100.00;102841.00;5028848;28;20029;-67
2022/10/18 10:01:51;;;;;;;8.63;1.45;;;;;;;18.42;100.00;102838.50;5060859;28;20047;-66
2022/10/18 10:04:16;;;;;;;6.90;1.45;;;;;;;18.65;100.00;102840.59;5087426;28;20021;-67
2022/10/18 10:06:53;;;;;;;5.80;1.13;;;;;;;18.92;100.00;102847.22;5077469;28;20060;-67
2022/10/18 10:09:28;;;;;;;9.77;1.10;;;;;;;19.08;100.00;102843.91;5074974;28;20115;-66
2022/10/18 10:11:54;;;;;;;10.65;1.30;;;;;;;19.28;92.37;102848.63;5083487;28;20012;-67
2022/10/18 10:14:24;;;;;;;6.25;1.33;;;;;;;19.46;96.43;102847.94;5077924;28;20032;-66
2022/10/18 10:16:56;;;;;;;5.07;1.20;;;;;;;19.68;94.77;102851.72;5077185;28;20032;-67
2022/10/18 10:19:34;;;;;;;4.55;1.08;;;;;;;19.79;81.58;102847.41;5081487;28;20461;-67
2022/10/18 10:22:00;;;;;;;11.63;1.75;;;;;;;20.12;85.76;102845.09;5074828;28;20064;-66
2022/10/18 10:24:44;;;;;;;3.85;0.88;;;;;;;20.19;87.67;102855.81;5072820;28;20056;-66
2022/10/18 10:27:19;;;;;;;7.10;1.40;;;;;;;20.49;84.48;102851.59;5077396;28;20501;-67
2022/10/18 10:29:44;;;;;;;12.13;1.50;;;;;;;20.83;76.54;102851.84;5087042;28;20442;-66
2022/10/18 10:32:15;;;;;;;3.63;1.23;;;;;;;20.97;72.97;102856.38;5089235;28;20128;-65
2022/10/18 10:34:40;;;;;;;8.90;1.77;;;;;;;21.10;82.20;102857.38;5074895;28;20772;-67
2022/10/18 10:37:29;;;;;;;9.23;1.30;;;;;;;21.35;67.27;102853.00;5083792;28;20029;-67
2022/10/18 10:40:12;;;;;;;6.47;1.27;;;;;;;21.51;65.53;102862.91;5083770;28;20024;-66
2022/10/18 10:42:52;;;;;;;5.13;0.82;;;;;;;21.83;63.93;102870.13;5072230;28;20032;-66
2022/10/18 10:45:19;;;;;;;8.40;1.30;;;;;;;21.98;62.31;102876.41;5081293;28;20039;-67
2022/10/18 10:47:45;;;;;;;7.38;1.35;;;;;;;22.22;62.29;102871.06;5082098;28;20031;-67
2022/10/18 10:50:12;;;;;;;6.65;1.25;;;;;;;22.42;59.78;102882.72;5086592;28;20375;-66
2022/10/18 10:52:39;;;;;;;6.25;1.20;;;;;;;22.61;56.89;102872.88;5083675;28;20028;-67
2022/10/18 10:55:15;;;;;;;6.43;0.95;;;;;;;22.73;55.67;102867.47;5086193;28;20372;-66
2022/10/18 10:57:43;;;;;;;6.95;1.50;;;;;;;22.72;56.28;102881.78;5082628;28;20048;-67
2022/10/18 11:00:44;;;;;;;5.75;1.48;;;;;;;22.88;56.18;102888.94;5087320;28;20507;-67
2022/10/18 11:03:19;;;;;;;6.93;1.50;;;;;;;23.10;52.17;102888.88;5076407;28;20055;-67
2022/10/18 11:05:47;;;;;;;8.57;1.20;;;;;;;23.20;54.17;102879.03;5082135;28;20032;-67
2022/10/18 11:08:20;;;;;;;6.80;1.20;;;;;;;23.51;51.32;102882.47;5087876;28;20456;-67
2022/10/18 11:10:48;;;;;;;6.88;1.23;;;;;;;23.43;54.26;102889.66;5076567;28;20028;-67
2022/10/18 11:13:17;;;;;;;7.43;1.33;;;;;;;23.51;53.29;102890.53;5085633;28;20028;-68
2022/10/18 11:15:51;;;;;;;7.90;1.02;;;;;;;23.71;48.94;102892.19;5090058;28;20070;-67
2022/10/18 11:18:16;;;;;;;9.38;1.20;;;;;;;23.99;49.21;102884.00;5096366;28;20068;-66
2022/10/18 11:21:11;;;;;;;6.30;1.13;;;;;;;24.13;46.99;102879.38;5091805;28;20499;-66
2022/10/18 11:23:39;;;;;;;8.85;1.00;;;;;;;24.00;44.25;102885.78;5093796;28;20165;-66